| time (UTC) | temp F | wind direction | speed knots | gust knots | rain 1hr in | rain 24hr in | rain mn in | humidity % | barometer mb |
| 20260506213401 | 84 | 167 | 3.5 | 6.1 | 0.00 | 0.00 | 0.00 | 85 | 1007.2 |
| 20260506212901 | 84 | 177 | 2.6 | 6.1 | 0.00 | 0.00 | 0.00 | 85 | 1007.1 |
| 20260506212401 | 84 | 160 | 3.5 | 6.1 | 0.00 | 0.00 | 0.00 | 85 | 1007.2 |
| 20260506211900 | 83 | 161 | 1.7 | 5.2 | 0.00 | 0.00 | 0.00 | 86 | 1007.2 |
| 20260506211401 | 83 | 175 | 0.9 | 3.5 | 0.00 | 0.00 | 0.00 | 86 | 1007.3 |
| 20260506211123 | 84 | 178 | 0.9 | 3.5 | 0.00 | 0.00 | 0.00 | 87 | 1007.5 |
| 20260506210400 | 83 | 183 | 1.7 | 3.5 | 0.00 | 0.00 | 0.00 | 88 | 1007.6 |
| 20260506205900 | 83 | 190 | 1.7 | 4.3 | 0.00 | 0.00 | 0.00 | 90 | 1007.7 |
| 20260506205623 | 82 | 168 | 1.7 | 4.3 | 0.00 | 0.00 | 0.00 | 89 | 1007.7 |
| 20260506204903 | 81 | 132 | 0.0 | 0.9 | 0.00 | 0.00 | 0.00 | 90 | 1007.9 |
| 20260506204403 | 81 | 132 | 0.0 | 0.9 | 0.00 | 0.00 | 0.00 | 90 | 1008.0 |
| 20260506203904 | 81 | 132 | 0.0 | 0.9 | 0.00 | 0.00 | 0.00 | 89 | 1008.1 |
| 20260506203635 | 81 | 132 | 0.0 | 0.9 | 0.00 | 0.00 | 0.00 | 91 | 1008.2 |
| 20260506203127 | 81 | 132 | 0.0 | 1.7 | 0.00 | 0.00 | 0.00 | 90 | 1008.3 |
| 20260506202404 | 81 | 132 | 0.0 | 2.6 | 0.00 | 0.00 | 0.00 | 89 | 1008.2 |
| 20260506201903 | 81 | 124 | 0.0 | 2.6 | 0.00 | 0.00 | 0.00 | 90 | 1008.3 |
| 20260506201403 | 81 | 120 | 0.9 | 2.6 | 0.00 | 0.00 | 0.00 | 90 | 1008.3 |
| 20260506200902 | 81 | 163 | 0.0 | 0.9 | 0.00 | 0.00 | 0.00 | 90 | 1008.3 |
| 20260506200402 | 80 | 164 | 0.0 | 0.9 | 0.00 | 0.00 | 0.00 | 90 | 1008.2 |
| 20260506195903 | 81 | 164 | 0.0 | 1.7 | 0.00 | 0.00 | 0.00 | 90 | 1008.3 |
| 20260506195403 | 81 | 164 | 0.0 | 0.9 | 0.00 | 0.00 | 0.00 | 89 | 1008.6 |
| 20260506194900 | 81 | 0 | 0.0 | 0.0 | 0.00 | 0.00 | 0.00 | 89 | 1008.7 |
| 20260506194722 | 0 | 0.0 | 0.0 | 0.00 | 0.00 | 0.00 | |||
| 20260506194002 | 0 | 0.0 | 0.0 | 0.00 | 0.00 | 0.00 | |||
| 20260506193431 | 0 | 0.0 | 0.0 | 0.00 | 0.00 | 0.00 | |||
| 20260506192929 | 0 | 0.0 | 0.0 | 0.00 | 0.00 | 0.00 | |||
| 20260506192404 | 0 | 0.0 | 0.0 | 0.00 | 0.00 | 0.00 | |||
| 20260506191902 | 0 | 0.0 | 0.0 | 0.00 | 0.00 | 0.00 | |||
| 20260506191329 | 80 | 167 | 1.7 | 3.5 | 0.00 | 0.00 | 0.00 | 90 | 1009.2 |
| 20260506190831 | 80 | 167 | 1.7 | 5.2 | 0.00 | 0.00 | 0.00 | 90 | 1009.2 |
| 20260506190330 | 80 | 182 | 0.9 | 5.2 | 0.00 | 0.00 | 0.00 | 90 | 1009.6 |
| 20260506185830 | 80 | 186 | 0.9 | 2.6 | 0.00 | 0.00 | 0.00 | 92 | 1009.6 |
| 20260506185330 | 80 | 186 | 1.7 | 5.2 | 0.00 | 0.00 | 0.00 | 92 | 1009.7 |
| 20260506185052 | 79 | 186 | 1.7 | 5.2 | 0.00 | 0.00 | 0.00 | 93 | 1009.6 |
| 20260506184330 | 79 | 168 | 1.7 | 4.3 | 0.00 | 0.00 | 0.00 | 93 | 1009.8 |
| 20260506183831 | 79 | 150 | 1.7 | 2.6 | 0.00 | 0.00 | 0.00 | 92 | 1010.0 |
| 20260506183330 | 79 | 180 | 0.9 | 2.6 | 0.00 | 0.00 | 0.00 | 93 | 1010.2 |
| 20260506182830 | 79 | 185 | 0.9 | 2.6 | 0.00 | 0.00 | 0.00 | 92 | 1010.3 |
| 20260506182329 | 79 | 185 | 0.9 | 2.6 | 0.00 | 0.00 | 0.00 | 92 | 1010.3 |
| 20260506181830 | 79 | 180 | 0.9 | 1.7 | 0.00 | 0.00 | 0.00 | 93 | 1010.4 |
| 20260506181330 | 79 | 180 | 0.0 | 3.5 | 0.00 | 0.00 | 0.00 | 93 | 1010.5 |
| 20260506180829 | 79 | 184 | 0.9 | 3.5 | 0.00 | 0.00 | 0.00 | 93 | 1010.4 |
| 20260506180330 | 78 | 161 | 0.9 | 3.5 | 0.00 | 0.00 | 0.00 | 93 | 1010.5 |
| 20260506175830 | 79 | 162 | 1.7 | 3.5 | 0.00 | 0.00 | 0.00 | 93 | 1010.6 |
| 20260506175330 | 79 | 188 | 0.9 | 3.5 | 0.00 | 0.00 | 0.00 | 92 | 1010.5 |
| 20260506174830 | 79 | 186 | 1.7 | 3.5 | 0.00 | 0.00 | 0.00 | 92 | 1010.7 |
| 20260506174330 | 79 | 182 | 1.7 | 3.5 | 0.00 | 0.00 | 0.00 | 92 | 1010.8 |
| 20260506173830 | 79 | 178 | 1.7 | 4.3 | 0.00 | 0.00 | 0.00 | 93 | 1010.9 |
| 20260506173330 | 79 | 166 | 1.7 | 7.0 | 0.00 | 0.00 | 0.00 | 93 | 1010.8 |
| 20260506172830 | 78 | 171 | 1.7 | 7.0 | 0.00 | 0.00 | 0.00 | 94 | 1010.7 |
| 20260506172330 | 78 | 155 | 0.0 | 2.6 | 0.00 | 0.00 | 0.00 | 95 | 1010.8 |
| 20260506171830 | 78 | 155 | 1.7 | 3.5 | 0.00 | 0.00 | 0.00 | 95 | 1010.8 |
| 20260506171329 | 78 | 141 | 0.9 | 3.5 | 0.00 | 0.00 | 0.00 | 95 | 1010.8 |
| 20260506170829 | 77 | 130 | 0.9 | 2.6 | 0.00 | 0.00 | 0.00 | 95 | 1010.9 |
| 20260506170330 | 77 | 150 | 0.9 | 1.7 | 0.00 | 0.00 | 0.00 | 96 | 1010.9 |
| 20260506165830 | 77 | 152 | 0.0 | 0.0 | 0.00 | 0.00 | 0.00 | 96 | 1010.8 |
| 20260506165330 | 76 | 152 | 0.0 | 0.0 | 0.00 | 0.00 | 0.00 | 96 | 1010.9 |
| 20260506164830 | 76 | 152 | 0.0 | 1.7 | 0.00 | 0.00 | 0.00 | 96 | 1011.1 |
| 20260506164330 | 76 | 152 | 0.0 | 1.7 | 0.00 | 0.00 | 0.00 | 96 | 1010.9 |
| 20260506163830 | 76 | 128 | 0.0 | 1.7 | 0.00 | 0.00 | 0.00 | 96 | 1011.1 |
| 20260506163330 | 76 | 128 | 0.0 | 1.7 | 0.00 | 0.00 | 0.00 | 96 | 1011.0 |
| 20260506162830 | 76 | 128 | 0.9 | 1.7 | 0.00 | 0.00 | 0.00 | 96 | 1011.2 |
| 20260506162330 | 76 | 128 | 0.9 | 1.7 | 0.00 | 0.00 | 0.00 | 96 | 1011.2 |
| 20260506161830 | 76 | 118 | 0.9 | 2.6 | 0.00 | 0.00 | 0.00 | 96 | 1011.2 |
| 20260506161330 | 76 | 175 | 0.9 | 3.5 | 0.00 | 0.00 | 0.00 | 96 | 1011.1 |
| 20260506160830 | 76 | 132 | 0.9 | 3.5 | 0.00 | 0.00 | 0.00 | 96 | 1011.1 |
| 20260506160329 | 76 | 178 | 0.9 | 3.5 | 0.00 | 0.00 | 0.00 | 96 | 1011.0 |
| 20260506155831 | 76 | 158 | 1.7 | 3.5 | 0.00 | 0.00 | 0.00 | 96 | 1011.0 |
| 20260506155330 | 76 | 159 | 1.7 | 3.5 | 0.00 | 0.00 | 0.00 | 96 | 1011.0 |
| 20260506154830 | 76 | 205 | 2.6 | 3.5 | 0.00 | 0.00 | 0.00 | 96 | 1011.0 |
| 20260506154550 | 76 | 165 | 0.9 | 3.5 | 0.00 | 0.00 | 0.00 | 96 | 1011.0 |
| 20260506153826 | 76 | 165 | 0.9 | 3.5 | 0.00 | 0.00 | 0.00 | 96 | 1011.0 |
| 20260506153319 | 76 | 165 | 1.7 | 3.5 | 0.00 | 0.00 | 0.00 | 96 | 1010.8 |
| 20260506152820 | 76 | 163 | 0.0 | 1.7 | 0.00 | 0.00 | 0.00 | 96 | 1010.7 |
| 20260506152539 | 75 | 163 | 0.0 | 1.7 | 0.00 | 0.00 | 0.00 | 96 | 1010.7 |
| 20260506152257 | 75 | 163 | 0.0 | 1.7 | 0.00 | 0.00 | 0.00 | 96 | 1010.7 |
| 20260506151305 | 75 | 163 | 0.9 | 2.6 | 0.00 | 0.00 | 0.00 | 96 | 1010.8 |
| 20260506150804 | 75 | 142 | 0.9 | 2.6 | 0.00 | 0.00 | 0.00 | 95 | 1010.9 |
| 20260506150305 | 75 | 154 | 0.9 | 2.6 | 0.00 | 0.00 | 0.00 | 95 | 1010.9 |
| 20260506145803 | 75 | 154 | 0.9 | 2.6 | 0.00 | 0.00 | 0.00 | 95 | 1011.0 |
| 20260506145305 | 75 | 153 | 0.0 | 3.5 | 0.00 | 0.00 | 0.00 | 95 | 1010.9 |
| 20260506144802 | 76 | 109 | 0.9 | 3.5 | 0.00 | 0.00 | 0.00 | 95 | 1010.9 |
| 20260506144302 | 76 | 190 | 1.7 | 3.5 | 0.00 | 0.00 | 0.00 | 95 | 1010.8 |
| 20260506144022 | 76 | 172 | 1.7 | 3.5 | 0.00 | 0.00 | 0.00 | 95 | 1010.8 |
| 20260506143302 | 76 | 160 | 1.7 | 2.6 | 0.00 | 0.00 | 0.00 | 95 | 1010.8 |
| 20260506142802 | 76 | 158 | 0.9 | 3.5 | 0.00 | 0.00 | 0.00 | 95 | 1010.8 |
| 20260506142305 | 76 | 153 | 1.7 | 3.5 | 0.00 | 0.00 | 0.00 | 95 | 1010.7 |
| 20260506141801 | 75 | 165 | 1.7 | 3.5 | 0.00 | 0.00 | 0.00 | 95 | 1010.8 |
| 20260506141301 | 76 | 169 | 1.7 | 3.5 | 0.00 | 0.00 | 0.00 | 95 | 1010.7 |
| 20260506140803 | 75 | 167 | 0.9 | 3.5 | 0.00 | 0.00 | 0.00 | 95 | 1010.8 |
| 20260506140520 | 75 | 167 | 1.7 | 3.5 | 0.00 | 0.00 | 0.00 | 95 | 1010.9 |
| 20260506135801 | 75 | 130 | 0.9 | 3.5 | 0.00 | 0.00 | 0.00 | 95 | 1010.8 |
| 20260506135306 | 75 | 124 | 1.7 | 3.5 | 0.00 | 0.00 | 0.00 | 95 | 1010.8 |
| 20260506134804 | 75 | 209 | 0.0 | 0.0 | 0.00 | 0.00 | 0.00 | 95 | 1010.7 |
| 20260506134526 | 75 | 209 | 0.0 | 0.0 | 0.00 | 0.00 | 0.00 | 95 | 1010.7 |
| 20260506133803 | 75 | 209 | 0.0 | 3.5 | 0.00 | 0.00 | 0.00 | 95 | 1010.6 |
| 20260506133303 | 75 | 209 | 0.0 | 4.3 | 0.00 | 0.00 | 0.00 | 95 | 1010.5 |
| 20260506132803 | 75 | 160 | 2.6 | 4.3 | 0.00 | 0.00 | 0.00 | 96 | 1010.4 |
| 20260506132307 | 75 | 169 | 0.9 | 4.3 | 0.00 | 0.00 | 0.00 | 96 | 1010.5 |
| 20260506131804 | 75 | 169 | 1.7 | 4.3 | 0.00 | 0.00 | 0.00 | 96 | 1010.6 |
| 20260506131303 | 75 | 175 | 0.9 | 4.3 | 0.00 | 0.00 | 0.00 | 96 | 1010.5 |
| 20260506131025 | 74 | 177 | 1.7 | 4.3 | 0.00 | 0.00 | 0.00 | 96 | 1010.4 |
| 20260506130735 | 74 | 175 | 1.7 | 3.5 | 0.00 | 0.00 | 0.00 | 96 | 1010.5 |
| 20260506125742 | 74 | 189 | 1.7 | 4.3 | 0.00 | 0.00 | 0.00 | 96 | 1010.3 |
| 20260506125232 | 74 | 175 | 1.7 | 4.3 | 0.00 | 0.00 | 0.00 | 97 | 1010.3 |
| 20260506124731 | 74 | 185 | 2.6 | 4.3 | 0.00 | 0.00 | 0.00 | 97 | 1010.2 |
| 20260506124232 | 74 | 178 | 1.7 | 4.3 | 0.00 | 0.00 | 0.00 | 97 | 1010.0 |
| 20260506123731 | 73 | 169 | 0.9 | 4.3 | 0.00 | 0.00 | 0.00 | 97 | 1010.0 |
| 20260506123232 | 73 | 136 | 1.7 | 4.3 | 0.00 | 0.00 | 0.00 | 97 | 1009.9 |
| 20260506122731 | 73 | 174 | 1.7 | 4.3 | 0.00 | 0.00 | 0.00 | 97 | 1009.9 |
| 20260506122231 | 73 | 195 | 0.9 | 3.5 | 0.00 | 0.00 | 0.00 | 97 | 1009.8 |
| 20260506121952 | 73 | 175 | 1.7 | 2.6 | 0.00 | 0.00 | 0.00 | 97 | 1009.8 |
| 20260506121231 | 73 | 175 | 1.7 | 2.6 | 0.00 | 0.00 | 0.00 | 97 | 1009.8 |
| 20260506120731 | 73 | 174 | 1.7 | 2.6 | 0.00 | 0.00 | 0.00 | 97 | 1009.8 |
| 20260506120230 | 73 | 178 | 0.9 | 2.6 | 0.00 | 0.00 | 0.00 | 97 | 1009.8 |
| 20260506115731 | 73 | 178 | 0.0 | 2.6 | 0.00 | 0.00 | 0.00 | 97 | 1009.6 |
| 20260506115447 | 73 | 178 | 0.9 | 1.7 | 0.00 | 0.00 | 0.00 | 97 | 1009.6 |
| 20260506114954 | 73 | 179 | 0.9 | 1.7 | 0.00 | 0.00 | 0.00 | 97 | 1009.6 |
| 20260506114717 | 73 | 179 | 1.7 | 1.7 | 0.00 | 0.00 | 0.00 | 97 | 1009.5 |
| 20260506113729 | 73 | 182 | 0.0 | 2.6 | 0.00 | 0.00 | 0.00 | 97 | 1009.4 |
| 20260506113448 | 72 | 183 | 0.9 | 2.6 | 0.00 | 0.00 | 0.00 | 97 | 1009.3 |
| 20260506113432 | 72 | 182 | 0.9 | 2.6 | 0.00 | 0.00 | 0.00 | 97 | 1009.4 |
| 20260506112229 | 72 | 184 | 0.9 | 1.7 | 0.00 | 0.00 | 0.00 | 97 | 1009.2 |
| 20260506111947 | 72 | 184 | 1.7 | 1.7 | 0.00 | 0.00 | 0.00 | 97 | 1009.2 |
| 20260506111229 | 72 | 184 | 1.7 | 3.5 | 0.00 | 0.00 | 0.00 | 97 | 1009.1 |
| 20260506110729 | 72 | 184 | 0.9 | 3.5 | 0.00 | 0.00 | 0.00 | 97 | 1009.0 |
| 20260506110228 | 72 | 161 | 0.0 | 4.3 | 0.00 | 0.00 | 0.00 | 97 | 1008.9 |
| 20260506105728 | 72 | 170 | 1.7 | 4.3 | 0.00 | 0.00 | 0.00 | 96 | 1009.0 |
| 20260506105228 | 72 | 178 | 0.0 | 3.5 | 0.00 | 0.00 | 0.00 | 96 | 1008.9 |
| 20260506104728 | 72 | 178 | 0.9 | 4.3 | 0.00 | 0.00 | 0.00 | 96 | 1008.9 |
| 20260506104229 | 72 | 169 | 2.6 | 4.3 | 0.00 | 0.00 | 0.00 | 96 | 1008.9 |
| 20260506103949 | 72 | 165 | 1.7 | 4.3 | 0.00 | 0.00 | 0.00 | 96 | 1008.8 |
| 20260506103230 | 72 | 167 | 1.7 | 4.3 | 0.00 | 0.00 | 0.00 | 96 | 1008.7 |
| 20260506102729 | 72 | 184 | 0.0 | 4.3 | 0.00 | 0.00 | 0.00 | 96 | 1008.7 |
| 20260506102229 | 72 | 186 | 1.7 | 4.3 | 0.00 | 0.00 | 0.00 | 96 | 1008.7 |
| 20260506101729 | 72 | 161 | 2.6 | 4.3 | 0.00 | 0.00 | 0.00 | 96 | 1008.8 |
| 20260506101228 | 72 | 198 | 0.9 | 2.6 | 0.00 | 0.00 | 0.00 | 96 | 1008.7 |
| 20260506100729 | 72 | 213 | 0.0 | 0.0 | 0.00 | 0.00 | 0.00 | 96 | 1008.8 |
| 20260506100229 | 72 | 213 | 0.0 | 0.0 | 0.00 | 0.00 | 0.00 | 96 | 1008.8 |
| 20260506095729 | 72 | 213 | 0.0 | 0.0 | 0.00 | 0.00 | 0.00 | 96 | 1008.9 |
| 20260506095229 | 72 | 213 | 0.0 | 0.0 | 0.00 | 0.00 | 0.00 | 96 | 1009.0 |
| 20260506094728 | 72 | 213 | 0.0 | 0.0 | 0.00 | 0.00 | 0.00 | 96 | 1009.0 |
| 20260506094231 | 72 | 213 | 0.0 | 0.0 | 0.00 | 0.00 | 0.00 | 95 | 1008.9 |
| 20260506094209 | 72 | 213 | 0.0 | 0.0 | 0.00 | 0.00 | 0.00 | 95 | 1009.0 |
| 20260506093230 | 72 | 213 | 0.0 | 0.0 | 0.00 | 0.00 | 0.00 | 95 | 1009.1 |
| 20260506093213 | 72 | 213 | 0.0 | 0.9 | 0.00 | 0.00 | 0.00 | 95 | 1009.2 |
| 20260506092230 | 72 | 213 | 0.0 | 1.7 | 0.00 | 0.00 | 0.00 | 95 | 1009.1 |
| 20260506091730 | 71 | 213 | 0.9 | 1.7 | 0.00 | 0.00 | 0.00 | 95 | 1009.2 |
| 20260506091230 | 71 | 213 | 0.0 | 0.9 | 0.00 | 0.00 | 0.00 | 94 | 1009.1 |
| 20260506090731 | 71 | 213 | 0.0 | 0.0 | 0.00 | 0.00 | 0.00 | 94 | 1009.2 |
| 20260506090231 | 71 | 213 | 0.0 | 0.0 | 0.00 | 0.00 | 0.00 | 94 | 1009.2 |
| 20260506085730 | 72 | 213 | 0.0 | 0.0 | 0.00 | 0.00 | 0.00 | 94 | 1009.0 |
| 20260506085230 | 72 | 213 | 0.0 | 0.9 | 0.00 | 0.00 | 0.00 | 93 | 1009.1 |
| 20260506084729 | 72 | 213 | 0.0 | 0.9 | 0.00 | 0.00 | 0.00 | 94 | 1009.2 |
| 20260506084230 | 72 | 213 | 0.0 | 2.6 | 0.00 | 0.00 | 0.00 | 94 | 1009.2 |
| 20260506083954 | 72 | 213 | 0.0 | 2.6 | 0.00 | 0.00 | 0.00 | 94 | 1009.1 |
| 20260506083230 | 73 | 181 | 0.9 | 2.6 | 0.00 | 0.00 | 0.00 | 94 | 1009.3 |
| 20260506082731 | 73 | 236 | 0.9 | 3.5 | 0.00 | 0.00 | 0.00 | 94 | 1009.2 |
| 20260506082230 | 73 | 236 | 1.7 | 3.5 | 0.00 | 0.00 | 0.00 | 94 | 1009.2 |
| 20260506081730 | 73 | 187 | 1.7 | 3.5 | 0.00 | 0.00 | 0.00 | 94 | 1009.2 |
| 20260506081230 | 73 | 180 | 1.7 | 3.5 | 0.00 | 0.00 | 0.00 | 93 | 1008.9 |
| 20260506080730 | 73 | 172 | 1.7 | 4.3 | 0.00 | 0.00 | 0.00 | 94 | 1008.9 |
| 20260506080230 | 73 | 178 | 1.7 | 4.3 | 0.00 | 0.00 | 0.00 | 94 | 1009.0 |
| 20260506073230 | 73 | 178 | 1.7 | 4.3 | 0.00 | 0.00 | 0.00 | 94 | 1009.3 |
| 20260506072730 | 73 | 182 | 1.7 | 6.1 | 0.00 | 0.00 | 0.00 | 94 | 1009.4 |
| 20260506072229 | 73 | 177 | 2.6 | 6.1 | 0.00 | 0.00 | 0.00 | 94 | 1009.4 |
| 20260506071730 | 73 | 207 | 2.6 | 4.3 | 0.00 | 0.00 | 0.00 | 95 | 1009.3 |
| 20260506071230 | 73 | 174 | 1.7 | 4.3 | 0.00 | 0.00 | 0.00 | 95 | 1009.2 |
| 20260506070730 | 72 | 174 | 1.7 | 4.3 | 0.00 | 0.00 | 0.00 | 95 | 1009.2 |
| 20260506070230 | 72 | 176 | 2.6 | 4.3 | 0.00 | 0.00 | 0.00 | 95 | 1009.2 |
| 20260506062229 | 71 | 155 | 1.7 | 2.6 | 0.00 | 0.00 | 0.00 | 95 | 1009.4 |
| 20260506061729 | 71 | 148 | 0.9 | 2.6 | 0.00 | 0.00 | 0.00 | 95 | 1009.4 |
| 20260506061229 | 72 | 148 | 1.7 | 3.5 | 0.00 | 0.00 | 0.00 | 95 | 1009.4 |
| 20260506060729 | 72 | 148 | 0.9 | 3.5 | 0.00 | 0.00 | 0.00 | 95 | 1009.4 |
| 20260506060228 | 72 | 157 | 1.7 | 2.6 | 0.00 | 0.00 | 0.00 | 95 | 1009.4 |
| 20260506051232 | 73 | 182 | 1.7 | 3.5 | 0.00 | 0.00 | 0.00 | 93 | 1009.7 |
| 20260506050731 | 73 | 182 | 1.7 | 3.5 | 0.00 | 0.00 | 0.00 | 93 | 1009.7 |
| 20260506050231 | 73 | 155 | 0.9 | 2.6 | 0.00 | 0.00 | 0.00 | 93 | 1009.8 |
| 20260506044919 | 73 | 175 | 1.7 | 4.3 | 0.00 | 0.00 | 0.00 | 93 | 1009.8 |
| 20260506044908 | 73 | 173 | 1.7 | 3.5 | 0.00 | 0.00 | 0.00 | 93 | 1009.8 |
| 20260506043934 | 73 | 176 | 1.7 | 4.3 | 0.00 | 0.00 | 0.00 | 93 | 1009.7 |
| 20260506043204 | 73 | 169 | 2.6 | 4.3 | 0.00 | 0.00 | 0.00 | 92 | 1009.7 |
| 20260506042703 | 73 | 178 | 1.7 | 5.2 | 0.00 | 0.00 | 0.00 | 92 | 1009.6 |
| 20260506042204 | 73 | 239 | 2.6 | 5.2 | 0.00 | 0.00 | 0.00 | 92 | 1009.7 |
| 20260506041703 | 73 | 175 | 2.6 | 4.3 | 0.00 | 0.00 | 0.00 | 92 | 1009.7 |
| 20260506041427 | 74 | 169 | 2.6 | 4.3 | 0.00 | 0.00 | 0.00 | 92 | 1009.6 |
| 20260506040704 | 74 | 146 | 1.7 | 4.3 | 0.00 | 0.00 | 0.00 | 91 | 1009.7 |
| 20260506040204 | 74 | 176 | 1.7 | 4.3 | 0.00 | 0.00 | 0.00 | 91 | 1009.7 |
| 20260506035703 | 74 | 163 | 2.6 | 4.3 | 0.00 | 0.00 | 0.00 | 91 | 1009.6 |
| 20260506035154 | 74 | 182 | 1.7 | 3.5 | 0.00 | 0.00 | 0.00 | 91 | 1009.6 |
| 20260506034648 | 74 | 168 | 0.9 | 3.5 | 0.00 | 0.00 | 0.00 | 91 | 1009.6 |
| 20260506034144 | 74 | 168 | 0.9 | 3.5 | 0.00 | 0.00 | 0.00 | 90 | 1009.6 |
| 20260506033639 | 74 | 166 | 1.7 | 4.3 | 0.00 | 0.00 | 0.00 | 90 | 1009.6 |
| 20260506033135 | 74 | 166 | 1.7 | 4.3 | 0.00 | 0.00 | 0.00 | 90 | 1009.4 |
| 20260506032632 | 75 | 187 | 1.7 | 4.3 | 0.00 | 0.00 | 0.00 | 89 | 1009.2 |
| 20260506032131 | 75 | 190 | 1.7 | 6.1 | 0.00 | 0.00 | 0.00 | 89 | 1009.3 |
| 20260506031632 | 75 | 171 | 3.5 | 6.1 | 0.00 | 0.00 | 0.00 | 89 | 1009.3 |
| 20260506031131 | 75 | 178 | 2.6 | 4.3 | 0.00 | 0.00 | 0.00 | 88 | 1009.2 |
| 20260506030630 | 75 | 178 | 1.7 | 8.7 | 0.00 | 0.00 | 0.00 | 88 | 1009.1 |
| 20260506030357 | 76 | 171 | 2.6 | 8.7 | 0.00 | 0.00 | 0.00 | 88 | 1009.1 |
| 20260506025631 | 76 | 174 | 3.5 | 7.0 | 0.00 | 0.00 | 0.00 | 88 | 1009.0 |
| 20260506025131 | 76 | 157 | 2.6 | 5.2 | 0.00 | 0.00 | 0.00 | 87 | 1008.9 |
| 20260506024631 | 76 | 165 | 2.6 | 7.0 | 0.00 | 0.00 | 0.00 | 87 | 1008.9 |
| 20260506024353 | 76 | 171 | 3.5 | 7.8 | 0.00 | 0.00 | 0.00 | 87 | 1008.8 |
| 20260506023632 | 76 | 192 | 5.2 | 7.8 | 0.00 | 0.00 | 0.00 | 87 | 1008.9 |
| 20260506023131 | 76 | 183 | 2.6 | 5.2 | 0.00 | 0.00 | 0.00 | 87 | 1008.7 |
| 20260506022628 | 76 | 163 | 2.6 | 5.2 | 0.00 | 0.00 | 0.00 | 87 | 1008.7 |
| 20260506022129 | 76 | 182 | 3.5 | 6.1 | 0.00 | 0.00 | 0.00 | 87 | 1008.7 |
| 20260506021629 | 76 | 169 | 3.5 | 6.1 | 0.00 | 0.00 | 0.00 | 87 | 1008.6 |
| 20260506021129 | 76 | 153 | 3.5 | 6.1 | 0.00 | 0.00 | 0.00 | 87 | 1008.5 |
| 20260506020629 | 76 | 193 | 3.5 | 9.6 | 0.00 | 0.00 | 0.00 | 87 | 1008.4 |
| 20260506020129 | 76 | 181 | 3.5 | 9.6 | 0.00 | 0.00 | 0.00 | 87 | 1008.3 |
| 20260506015629 | 77 | 182 | 3.5 | 7.8 | 0.00 | 0.00 | 0.00 | 87 | 1008.3 |
| 20260506015400 | 77 | 155 | 3.5 | 9.6 | 0.00 | 0.00 | 0.00 | 87 | 1008.2 |
| 20260506014848 | 77 | 207 | 5.2 | 9.6 | 0.00 | 0.00 | 0.00 | 87 | 1008.3 |
| 20260506014129 | 77 | 158 | 3.5 | 8.7 | 0.00 | 0.00 | 0.00 | 87 | 1008.2 |
| 20260506013629 | 77 | 163 | 2.6 | 6.1 | 0.00 | 0.00 | 0.00 | 87 | 1008.2 |
| 20260506013129 | 77 | 178 | 2.6 | 4.3 | 0.00 | 0.00 | 0.00 | 87 | 1008.2 |
| 20260506012852 | 77 | 175 | 1.7 | 5.2 | 0.00 | 0.00 | 0.00 | 87 | 1008.3 |
| 20260506012128 | 77 | 158 | 3.5 | 5.2 | 0.00 | 0.00 | 0.00 | 86 | 1008.2 |
| 20260506011629 | 77 | 182 | 2.6 | 4.3 | 0.00 | 0.00 | 0.00 | 86 | 1008.0 |
| 20260506011348 | 77 | 168 | 2.6 | 4.3 | 0.00 | 0.00 | 0.00 | 86 | 1007.9 |
| 20260506010629 | 77 | 170 | 2.6 | 7.0 | 0.00 | 0.00 | 0.00 | 86 | 1008.0 |
| 20260506010129 | 77 | 186 | 2.6 | 7.0 | 0.00 | 0.00 | 0.00 | 86 | 1007.7 |
| 20260506005629 | 78 | 188 | 1.7 | 4.3 | 0.00 | 0.00 | 0.00 | 86 | 1007.7 |
| 20260506005129 | 78 | 189 | 1.7 | 6.1 | 0.00 | 0.00 | 0.00 | 86 | 1007.6 |
| 20260506004629 | 78 | 180 | 2.6 | 7.0 | 0.00 | 0.00 | 0.00 | 86 | 1007.6 |
| 20260506004128 | 78 | 180 | 4.3 | 7.0 | 0.00 | 0.00 | 0.00 | 85 | 1007.5 |
| 20260506003629 | 78 | 221 | 1.7 | 7.0 | 0.00 | 0.00 | 0.00 | 85 | 1007.6 |
| 20260506003129 | 78 | 171 | 3.5 | 7.0 | 0.00 | 0.00 | 0.00 | 85 | 1007.6 |
| 20260506002629 | 78 | 171 | 3.5 | 6.1 | 0.00 | 0.00 | 0.00 | 85 | 1007.6 |
| 20260506002129 | 78 | 172 | 3.5 | 6.1 | 0.00 | 0.00 | 0.00 | 85 | 1007.7 |
| 20260506001629 | 78 | 187 | 3.5 | 7.0 | 0.00 | 0.00 | 0.00 | 85 | 1007.6 |
| 20260506001129 | 78 | 161 | 3.5 | 7.0 | 0.00 | 0.00 | 0.00 | 85 | 1007.5 |
| 20260506000629 | 78 | 176 | 3.5 | 7.0 | 0.00 | 0.00 | 0.00 | 85 | 1007.4 |
| 20260506000129 | 79 | 178 | 3.5 | 5.2 | 0.00 | 0.00 | 0.00 | 85 | 1007.6 |
| 20260505235629 | 79 | 182 | 2.6 | 4.3 | 0.00 | 0.00 | 0.00 | 86 | 1007.5 |
| 20260505235129 | 79 | 178 | 2.6 | 4.3 | 0.00 | 0.00 | 0.00 | 85 | 1007.6 |
| 20260505234629 | 79 | 171 | 2.6 | 5.2 | 0.00 | 0.00 | 0.00 | 85 | 1007.6 |
| 20260505234613 | 79 | 150 | 2.6 | 7.0 | 0.00 | 0.00 | 0.00 | 85 | 1007.7 |
| 20260505233629 | 79 | 179 | 3.5 | 7.0 | 0.00 | 0.00 | 0.00 | 85 | 1007.7 |
| 20260505233129 | 79 | 174 | 2.6 | 5.2 | 0.00 | 0.00 | 0.00 | 85 | 1007.7 |
| 20260505232628 | 79 | 183 | 2.6 | 5.2 | 0.00 | 0.00 | 0.00 | 85 | 1007.7 |
| 20260505232129 | 79 | 165 | 3.5 | 5.2 | 0.00 | 0.00 | 0.00 | 85 | 1007.6 |
| 20260505231628 | 79 | 182 | 3.5 | 5.2 | 0.00 | 0.00 | 0.00 | 85 | 1007.7 |
| 20260505231131 | 79 | 163 | 3.5 | 5.2 | 0.00 | 0.00 | 0.00 | 86 | 1007.6 |
| 20260505230632 | 79 | 173 | 2.6 | 5.2 | 0.00 | 0.00 | 0.00 | 86 | 1007.6 |
| 20260505230131 | 79 | 171 | 2.6 | 6.1 | 0.00 | 0.00 | 0.00 | 85 | 1007.6 |
| 20260505225631 | 79 | 182 | 4.3 | 6.1 | 0.00 | 0.00 | 0.00 | 85 | 1007.6 |
| 20260505225132 | 79 | 188 | 3.5 | 6.1 | 0.00 | 0.00 | 0.00 | 85 | 1007.6 |
| 20260505224854 | 79 | 183 | 2.6 | 6.1 | 0.00 | 0.00 | 0.00 | 86 | 1007.6 |
| 20260505224131 | 79 | 172 | 2.6 | 6.1 | 0.00 | 0.00 | 0.00 | 85 | 1007.7 |
| 20260505223631 | 79 | 173 | 2.6 | 6.1 | 0.00 | 0.00 | 0.00 | 86 | 1007.4 |
| 20260505223131 | 79 | 175 | 3.5 | 5.2 | 0.00 | 0.00 | 0.00 | 86 | 1007.7 |
| 20260505222630 | 79 | 173 | 1.7 | 5.2 | 0.00 | 0.00 | 0.00 | 86 | 1007.7 |
| 20260505222131 | 79 | 183 | 1.7 | 4.3 | 0.00 | 0.00 | 0.00 | 86 | 1007.6 |
| 20260505221627 | 79 | 172 | 1.7 | 4.3 | 0.00 | 0.00 | 0.00 | 86 | 1007.7 |
| 20260505221120 | 78 | 176 | 2.6 | 4.3 | 0.00 | 0.00 | 0.00 | 86 | 1007.8 |
| 20260505220621 | 78 | 172 | 1.7 | 5.2 | 0.00 | 0.00 | 0.00 | 87 | 1007.7 |
| 20260505220121 | 78 | 159 | 2.6 | 5.2 | 0.00 | 0.00 | 0.00 | 86 | 1007.9 |
| 20260505215616 | 78 | 183 | 2.6 | 4.3 | 0.00 | 0.00 | 0.00 | 86 | 1007.9 |
| 20260505215116 | 78 | 182 | 2.6 | 3.5 | 0.00 | 0.00 | 0.00 | 87 | 1007.9 |
| 20260505214611 | 78 | 176 | 1.7 | 3.5 | 0.00 | 0.00 | 0.00 | 86 | 1008.1 |
| 20260505214111 | 78 | 191 | 2.6 | 3.5 | 0.00 | 0.00 | 0.00 | 86 | 1008.1 |
| 20260505213607 | 78 | 182 | 0.9 | 5.2 | 0.00 | 0.00 | 0.00 | 87 | 1008.1 |